createdAt,value
2024-04-07T00:02:00.069Z,20.57
2024-04-07T00:04:26.149Z,20.72
2024-04-07T00:06:52.787Z,20.79
2024-04-07T00:09:18.903Z,20.79
2024-04-07T00:11:45.963Z,20.59
2024-04-07T00:14:12.137Z,20.68
2024-04-07T00:16:38.420Z,20.78
2024-04-07T00:19:04.497Z,20.83
2024-04-07T00:21:31.181Z,20.86
2024-04-07T00:23:57.814Z,20.90
2024-04-07T00:26:24.290Z,20.57
2024-04-07T00:28:51.039Z,20.91
2024-04-07T00:31:17.458Z,20.88
2024-04-07T00:33:43.598Z,20.88
2024-04-07T00:36:09.958Z,20.88
2024-04-07T00:38:36.383Z,20.82
2024-04-07T00:41:03.107Z,20.83
2024-04-07T00:43:29.298Z,20.74
2024-04-07T00:45:56.430Z,20.88
2024-04-07T00:48:22.947Z,20.87
2024-04-07T00:50:51.164Z,20.91
2024-04-07T00:53:17.725Z,20.91
2024-04-07T00:55:45.401Z,20.94
2024-04-07T00:58:12.787Z,20.93
2024-04-07T01:00:42.841Z,20.93
2024-04-07T01:03:10.308Z,20.99
2024-04-07T01:05:40.948Z,21.02
2024-04-07T01:08:07.782Z,21.10
2024-04-07T01:10:34.312Z,21.12
2024-04-07T01:13:03.180Z,21.09
2024-04-07T01:15:29.765Z,21.06
2024-04-07T01:17:57.521Z,21.15
2024-04-07T01:20:24.728Z,21.10
2024-04-07T01:22:51.105Z,21.01
2024-04-07T01:25:18.559Z,21.15
2024-04-07T01:27:46.651Z,21.13
2024-04-07T01:30:13.072Z,20.99
2024-04-07T01:32:41.514Z,21.09
2024-04-07T01:35:07.956Z,21.13
2024-04-07T01:37:34.025Z,21.17
2024-04-07T01:40:03.259Z,21.09
2024-04-07T01:42:30.187Z,21.10
2024-04-07T01:44:56.704Z,21.19
2024-04-07T01:47:22.833Z,21.20
2024-04-07T01:49:49.396Z,21.18
2024-04-07T01:52:15.636Z,21.14
2024-04-07T01:54:42.015Z,21.21
2024-04-07T01:57:08.112Z,21.19
2024-04-07T01:59:35.192Z,21.16
2024-04-07T02:02:01.266Z,21.11
2024-04-07T02:04:28.584Z,21.13
2024-04-07T02:06:54.717Z,21.05
2024-04-07T02:09:21.486Z,21.10
2024-04-07T02:11:47.714Z,21.07
2024-04-07T02:14:13.872Z,20.95
2024-04-07T02:16:44.323Z,20.96
2024-04-07T02:19:11.552Z,20.93
2024-04-07T02:21:38.128Z,20.89
2024-04-07T02:24:05.245Z,20.83
2024-04-07T02:26:31.856Z,20.78
2024-04-07T02:28:58.390Z,20.70
2024-04-07T02:31:25.381Z,20.65
2024-04-07T02:33:52.411Z,20.58
2024-04-07T02:36:18.570Z,20.46
2024-04-07T02:38:44.847Z,20.35
2024-04-07T02:41:11.675Z,20.35
2024-04-07T02:43:38.569Z,20.29
2024-04-07T02:46:23.254Z,20.20
2024-04-07T02:48:49.618Z,20.17
2024-04-07T02:51:16.642Z,20.12
2024-04-07T02:53:42.817Z,20.06
2024-04-07T02:56:09.032Z,19.94
2024-04-07T02:58:35.391Z,19.86
2024-04-07T03:01:05.424Z,19.86
2024-04-07T03:03:31.770Z,19.76
2024-04-07T03:05:58.453Z,19.54
2024-04-07T03:08:25.198Z,19.71
2024-04-07T03:10:57.634Z,19.65
2024-04-07T03:13:23.755Z,19.59
2024-04-07T03:15:50.223Z,19.56
2024-04-07T03:18:16.973Z,19.50
2024-04-07T03:20:43.332Z,19.48
2024-04-07T03:23:09.640Z,19.42
2024-04-07T03:25:36.796Z,19.17
2024-04-07T03:28:03.272Z,19.36
2024-04-07T03:30:29.860Z,19.32
2024-04-07T03:32:56.069Z,19.29
2024-04-07T03:35:22.382Z,19.18
2024-04-07T03:37:48.653Z,19.14
2024-04-07T03:40:16.292Z,19.18
2024-04-07T03:42:43.499Z,19.15
2024-04-07T03:45:10.124Z,19.10
2024-04-07T03:47:36.309Z,19.00
2024-04-07T03:50:02.897Z,19.03
2024-04-07T03:52:29.268Z,19.00
2024-04-07T03:54:55.494Z,18.99
2024-04-07T03:57:22.013Z,18.96
2024-04-07T03:59:50.200Z,18.92
2024-04-07T04:02:21.231Z,18.89
2024-04-07T04:04:55.535Z,18.85
2024-04-07T04:07:28.024Z,18.80
2024-04-07T04:09:54.980Z,18.76
2024-04-07T04:12:24.027Z,18.73
2024-04-07T04:14:52.056Z,18.68
2024-04-07T04:17:18.405Z,18.64
2024-04-07T04:19:44.360Z,18.54
2024-04-07T04:22:10.863Z,18.57
2024-04-07T04:24:37.169Z,18.49
2024-04-07T04:27:03.667Z,18.46
2024-04-07T04:29:31.248Z,18.50
2024-04-07T04:31:58.403Z,18.48
2024-04-07T04:34:24.479Z,18.46
2024-04-07T04:36:52.146Z,18.35
2024-04-07T04:39:18.431Z,18.41
2024-04-07T04:41:46.373Z,18.36
2024-04-07T04:44:13.085Z,18.40
2024-04-07T04:46:41.176Z,18.38
2024-04-07T04:49:08.462Z,18.27
2024-04-07T04:51:35.024Z,18.33
2024-04-07T04:54:01.360Z,18.27
2024-04-07T04:56:27.519Z,18.28
2024-04-07T04:58:57.096Z,18.31
2024-04-07T05:01:24.168Z,18.28
2024-04-07T05:03:50.288Z,18.28
2024-04-07T05:06:19.316Z,18.29
2024-04-07T05:08:46.006Z,18.21
2024-04-07T05:11:12.398Z,18.32
2024-04-07T05:13:38.375Z,18.29
2024-04-07T05:16:05.403Z,18.35
2024-04-07T05:18:32.679Z,18.36
2024-04-07T05:21:02.586Z,18.38
2024-04-07T05:23:29.336Z,18.38
2024-04-07T05:25:55.807Z,18.38
2024-04-07T05:28:21.871Z,18.37
2024-04-07T05:30:48.209Z,18.36
2024-04-07T05:33:14.122Z,18.29
2024-04-07T05:35:40.445Z,18.33
2024-04-07T05:38:06.591Z,18.22
2024-04-07T05:40:33.350Z,18.28
2024-04-07T05:42:59.677Z,18.28
2024-04-07T05:45:25.747Z,18.25
2024-04-07T05:47:53.296Z,18.30
2024-04-07T05:50:19.585Z,18.33
2024-04-07T05:52:45.922Z,18.32
2024-04-07T05:55:11.983Z,18.29
2024-04-07T05:57:39.563Z,18.35
2024-04-07T06:00:08.686Z,18.41
2024-04-07T06:02:35.164Z,18.49
2024-04-07T06:05:01.334Z,18.50
2024-04-07T06:07:27.763Z,18.48
2024-04-07T06:09:53.985Z,18.57
2024-04-07T06:12:20.366Z,18.62
2024-04-07T06:14:47.243Z,18.66
2024-04-07T06:17:13.697Z,18.65
2024-04-07T06:19:39.910Z,18.69
2024-04-07T06:22:06.076Z,18.65
2024-04-07T06:24:32.256Z,18.74
2024-04-07T06:26:58.696Z,18.74
2024-04-07T06:29:25.072Z,18.73
2024-04-07T06:31:52.622Z,18.77
2024-04-07T06:34:18.728Z,18.77
2024-04-07T06:36:45.151Z,18.90
2024-04-07T06:39:11.641Z,18.90
2024-04-07T06:41:38.031Z,18.93
2024-04-07T06:44:04.480Z,19.02
2024-04-07T06:46:30.856Z,19.10
2024-04-07T06:48:57.583Z,19.15
2024-04-07T06:51:23.929Z,19.18
2024-04-07T06:53:50.028Z,19.23
2024-04-07T06:56:17.905Z,19.23
2024-04-07T06:58:44.004Z,19.33
2024-04-07T07:01:10.420Z,19.29
2024-04-07T07:03:36.691Z,19.47
2024-04-07T07:06:04.301Z,19.51
2024-04-07T07:08:32.641Z,19.57
2024-04-07T07:10:59.978Z,19.62
2024-04-07T07:13:28.033Z,19.65
2024-04-07T07:15:55.806Z,19.66
2024-04-07T07:18:22.234Z,19.57
2024-04-07T07:20:48.748Z,19.58
2024-04-07T07:23:15.986Z,19.54
2024-04-07T07:25:43.517Z,19.54
2024-04-07T07:28:09.752Z,19.60
2024-04-07T07:30:36.278Z,19.54
2024-04-07T07:33:02.468Z,19.61
2024-04-07T07:35:28.604Z,19.48
2024-04-07T07:37:54.837Z,19.40
2024-04-07T07:40:21.663Z,19.36
2024-04-07T07:42:48.302Z,19.44
2024-04-07T07:45:16.728Z,19.48
2024-04-07T07:47:43.014Z,19.42
2024-04-07T07:50:09.507Z,19.48
2024-04-07T07:52:35.628Z,19.49
2024-04-07T07:55:02.041Z,19.51
2024-04-07T07:57:28.826Z,19.59
2024-04-07T07:59:59.750Z,19.61
2024-04-07T08:02:28.197Z,19.58
2024-04-07T08:04:54.890Z,19.57
2024-04-07T08:07:20.961Z,19.64
2024-04-07T08:09:47.330Z,19.65
2024-04-07T08:12:15.448Z,19.77
2024-04-07T08:14:46.212Z,19.85
2024-04-07T08:17:15.346Z,19.99
2024-04-07T08:19:44.170Z,20.13
2024-04-07T08:22:10.673Z,20.42
2024-04-07T08:24:37.238Z,20.82
2024-04-07T08:27:04.360Z,21.10
2024-04-07T08:29:30.724Z,21.34
2024-04-07T08:31:57.695Z,21.52
2024-04-07T08:34:23.835Z,21.74
2024-04-07T08:36:50.202Z,21.92
2024-04-07T08:39:19.143Z,21.97
2024-04-07T08:41:46.620Z,21.95
2024-04-07T08:44:13.885Z,21.91
2024-04-07T08:46:43.641Z,21.97
2024-04-07T08:49:14.122Z,22.02
2024-04-07T08:51:41.733Z,22.03
2024-04-07T08:54:08.453Z,21.99
2024-04-07T08:56:39.610Z,21.81
2024-04-07T08:59:11.309Z,21.62
2024-04-07T09:01:40.861Z,21.56
2024-04-07T09:04:09.487Z,21.48
2024-04-07T09:06:36.473Z,21.42
2024-04-07T09:09:04.790Z,21.51
2024-04-07T09:11:35.906Z,21.55
2024-04-07T09:14:03.009Z,21.57
2024-04-07T09:16:29.109Z,21.47
2024-04-07T09:18:57.888Z,21.30
2024-04-07T09:21:25.387Z,21.45
2024-04-07T09:23:53.775Z,21.44
2024-04-07T09:26:20.129Z,21.52
2024-04-07T09:28:46.820Z,21.49
2024-04-07T09:31:15.312Z,21.62
2024-04-07T09:33:44.853Z,21.68
2024-04-07T09:36:10.930Z,21.89
2024-04-07T09:38:37.108Z,21.86
2024-04-07T09:41:04.188Z,21.96
2024-04-07T09:43:32.268Z,21.84
2024-04-07T09:46:00.104Z,21.80
2024-04-07T09:48:28.414Z,21.89
2024-04-07T09:50:58.507Z,22.02
2024-04-07T09:53:35.098Z,22.22
2024-04-07T09:56:04.578Z,22.21
2024-04-07T09:58:31.255Z,22.21
2024-04-07T10:00:58.005Z,22.14
2024-04-07T10:03:24.630Z,22.10
2024-04-07T10:05:50.711Z,21.98
2024-04-07T10:08:16.876Z,21.78
2024-04-07T10:10:47.136Z,21.74
2024-04-07T10:13:23.257Z,21.60
2024-04-07T10:15:49.989Z,21.69
2024-04-07T10:18:17.507Z,21.68
2024-04-07T10:20:43.632Z,21.67
2024-04-07T10:23:13.286Z,21.67
2024-04-07T10:25:46.384Z,21.75
2024-04-07T10:28:12.935Z,21.86
2024-04-07T10:30:50.364Z,21.92
2024-04-07T10:33:16.679Z,21.99
2024-04-07T10:35:52.475Z,22.11
2024-04-07T10:38:18.894Z,22.24
2024-04-07T10:40:45.146Z,22.34
2024-04-07T10:43:11.573Z,22.36
2024-04-07T10:45:38.072Z,22.55
2024-04-07T10:48:10.156Z,22.70
2024-04-07T10:50:37.083Z,22.88
2024-04-07T10:53:08.363Z,22.97
2024-04-07T10:55:34.947Z,23.09
2024-04-07T10:58:01.620Z,23.20
2024-04-07T11:00:27.840Z,23.33
2024-04-07T11:02:54.735Z,23.44
2024-04-07T11:05:22.594Z,23.53
2024-04-07T11:07:51.938Z,23.77
2024-04-07T11:10:18.091Z,24.00
2024-04-07T11:12:44.456Z,24.25
2024-04-07T11:15:17.502Z,24.31
2024-04-07T11:17:44.527Z,24.45
2024-04-07T11:20:11.883Z,24.46
2024-04-07T11:22:39.413Z,24.48
2024-04-07T11:25:08.803Z,24.34
2024-04-07T11:27:35.319Z,24.22
2024-04-07T11:30:01.857Z,24.08
2024-04-07T11:32:28.456Z,24.07
2024-04-07T11:34:55.135Z,23.98
2024-04-07T11:37:25.886Z,24.02
2024-04-07T11:39:56.807Z,23.90
2024-04-07T11:42:25.071Z,23.83
2024-04-07T11:44:51.148Z,23.75
2024-04-07T11:47:17.672Z,23.82
2024-04-07T11:49:44.091Z,23.80
2024-04-07T11:52:10.612Z,24.14
2024-04-07T11:54:36.685Z,24.62
2024-04-07T11:57:04.287Z,25.08
2024-04-07T11:59:32.479Z,24.91
2024-04-07T12:02:00.288Z,24.69
2024-04-07T12:04:26.403Z,24.66
2024-04-07T12:06:52.805Z,24.33
2024-04-07T12:09:18.990Z,24.10
2024-04-07T12:11:45.398Z,24.08
2024-04-07T12:14:12.138Z,24.06
2024-04-07T12:16:39.490Z,24.23
2024-04-07T12:19:05.571Z,24.65
2024-04-07T12:21:31.957Z,24.74
2024-04-07T12:23:58.870Z,24.74
2024-04-07T12:26:25.271Z,24.60
2024-04-07T12:28:51.414Z,24.51
2024-04-07T12:31:18.832Z,24.47
2024-04-07T12:33:47.029Z,24.57
2024-04-07T12:36:13.496Z,24.61
2024-04-07T12:38:39.598Z,24.59
2024-04-07T12:41:05.979Z,24.65
2024-04-07T12:43:32.146Z,24.61
2024-04-07T12:45:58.509Z,24.67
2024-04-07T12:48:25.767Z,24.69
2024-04-07T12:50:52.858Z,24.73
2024-04-07T12:53:18.948Z,24.77
2024-04-07T12:55:45.427Z,24.94
2024-04-07T12:58:11.617Z,25.01
2024-04-07T13:00:41.117Z,24.76
2024-04-07T13:03:07.379Z,24.74
2024-04-07T13:05:34.402Z,24.73
2024-04-07T13:08:00.722Z,24.74
2024-04-07T13:10:27.263Z,24.94
2024-04-07T13:12:54.015Z,24.87
2024-04-07T13:15:20.468Z,24.93
2024-04-07T13:17:46.538Z,24.97
2024-04-07T13:20:12.969Z,25.00
2024-04-07T13:22:41.398Z,25.06
2024-04-07T13:25:07.819Z,25.16
2024-04-07T13:27:34.064Z,25.16
2024-04-07T13:30:00.749Z,25.21
2024-04-07T13:32:26.817Z,25.08
2024-04-07T13:34:53.165Z,25.05
2024-04-07T13:37:19.328Z,24.99
2024-04-07T13:39:48.872Z,24.97
2024-04-07T13:42:14.972Z,24.91
2024-04-07T13:44:41.347Z,24.86
2024-04-07T13:47:07.439Z,24.83
2024-04-07T13:49:33.837Z,24.70
2024-04-07T13:52:00.473Z,24.58
2024-04-07T13:54:26.921Z,24.46
2024-04-07T13:56:53.666Z,24.43
2024-04-07T13:59:20.027Z,24.42
2024-04-07T14:01:46.088Z,24.32
2024-04-07T14:04:12.588Z,24.17
2024-04-07T14:06:38.789Z,24.04
2024-04-07T14:09:05.843Z,23.91
2024-04-07T14:11:31.931Z,23.81
2024-04-07T14:13:59.014Z,23.69
2024-04-07T14:16:25.207Z,23.73
2024-04-07T14:18:52.070Z,23.65
2024-04-07T14:21:18.217Z,23.81
2024-04-07T14:23:45.441Z,23.89
2024-04-07T14:26:12.382Z,23.99
2024-04-07T14:28:39.564Z,23.87
2024-04-07T14:31:06.359Z,23.85
2024-04-07T14:33:32.760Z,23.80
2024-04-07T14:35:58.872Z,23.77
2024-04-07T14:38:25.286Z,23.75
2024-04-07T14:40:51.422Z,23.82
2024-04-07T14:43:17.891Z,23.84
2024-04-07T14:45:53.704Z,23.87
2024-04-07T14:48:20.819Z,23.94
2024-04-07T14:50:48.257Z,23.91
2024-04-07T14:53:14.992Z,23.75
2024-04-07T14:55:41.176Z,23.67
2024-04-07T14:58:07.580Z,23.55
2024-04-07T15:00:33.787Z,23.29
2024-04-07T15:03:00.213Z,23.24
2024-04-07T15:05:26.980Z,23.24
2024-04-07T15:07:55.971Z,23.28
2024-04-07T15:10:22.105Z,23.21
2024-04-07T15:12:48.617Z,23.14
2024-04-07T15:15:14.743Z,22.97
2024-04-07T15:17:41.169Z,22.98
2024-04-07T15:20:07.456Z,22.91
2024-04-07T15:22:34.800Z,22.82
2024-04-07T15:25:01.082Z,22.69
2024-04-07T15:27:27.428Z,22.76
2024-04-07T15:29:57.272Z,22.70
2024-04-07T15:32:23.635Z,22.65
2024-04-07T15:34:49.699Z,22.74
2024-04-07T15:37:16.579Z,22.68
2024-04-07T15:39:43.414Z,22.72
2024-04-07T15:42:09.804Z,22.75
2024-04-07T15:44:35.899Z,22.73
2024-04-07T15:47:02.161Z,22.63
2024-04-07T15:49:28.623Z,22.65
2024-04-07T15:51:55.225Z,22.63
2024-04-07T15:54:21.617Z,22.56
2024-04-07T15:56:48.600Z,22.49
2024-04-07T15:59:21.163Z,22.48
2024-04-07T16:01:48.232Z,22.43
2024-04-07T16:04:14.329Z,22.43
2024-04-07T16:06:43.587Z,22.38
2024-04-07T16:09:11.510Z,22.46
2024-04-07T16:11:38.142Z,22.46
2024-04-07T16:14:04.989Z,22.45
2024-04-07T16:16:31.382Z,22.39
2024-04-07T16:18:57.732Z,22.36
2024-04-07T16:21:24.127Z,22.33
2024-04-07T16:23:50.213Z,22.31
2024-04-07T16:26:17.150Z,22.21
2024-04-07T16:28:43.315Z,22.34
2024-04-07T16:31:10.196Z,22.31
2024-04-07T16:33:38.743Z,22.41
2024-04-07T16:36:05.407Z,22.41
2024-04-07T16:38:31.636Z,22.44
2024-04-07T16:40:59.938Z,22.43
2024-04-07T16:43:26.690Z,22.43
2024-04-07T16:45:53.404Z,22.35
2024-04-07T16:49:49.626Z,22.27
2024-04-07T16:52:16.031Z,22.22
2024-04-07T16:54:44.584Z,22.19
2024-04-07T16:57:12.098Z,22.13
2024-04-07T16:59:42.888Z,22.07
2024-04-07T17:02:09.382Z,22.02
2024-04-07T17:04:38.005Z,21.96
2024-04-07T17:07:06.605Z,21.90
2024-04-07T17:09:35.443Z,21.83
2024-04-07T17:12:01.873Z,21.77
2024-04-07T17:14:30.374Z,21.68
2024-04-07T17:16:58.491Z,21.63
2024-04-07T17:19:26.967Z,21.57
2024-04-07T17:21:53.774Z,21.50
2024-04-07T17:24:24.315Z,21.43
2024-04-07T17:26:50.910Z,21.38
2024-04-07T17:29:19.456Z,21.32
2024-04-07T17:31:48.313Z,21.26
2024-04-07T17:34:14.930Z,21.21
2024-04-07T17:36:44.631Z,21.16
2024-04-07T17:39:11.371Z,21.13
2024-04-07T17:41:43.942Z,21.12
2024-04-07T17:44:10.425Z,21.10
2024-04-07T17:46:38.964Z,21.08
2024-04-07T17:49:05.398Z,21.04
2024-04-07T17:51:33.823Z,21.02
2024-04-07T17:54:00.325Z,21.00
2024-04-07T17:56:29.201Z,20.96
2024-04-07T17:58:57.729Z,20.91
2024-04-07T18:01:26.529Z,20.88
2024-04-07T18:03:53.209Z,20.84
2024-04-07T18:06:22.566Z,20.82
2024-04-07T18:08:49.171Z,20.79
2024-04-07T18:11:17.812Z,20.73
2024-04-07T18:13:45.631Z,20.74
2024-04-07T18:16:17.067Z,20.68
2024-04-07T18:18:43.511Z,20.64
2024-04-07T18:21:12.163Z,20.64
2024-04-07T18:23:38.646Z,20.60
2024-04-07T18:26:08.032Z,20.59
2024-04-07T18:28:34.539Z,20.55
2024-04-07T18:31:03.894Z,20.54
2024-04-07T18:33:36.544Z,20.51
2024-04-07T18:36:05.238Z,20.48
2024-04-07T18:38:31.631Z,20.45
2024-04-07T18:41:00.188Z,20.45
2024-04-07T18:43:26.604Z,20.41
2024-04-07T18:45:55.097Z,20.40
2024-04-07T18:48:21.465Z,20.38
2024-04-07T18:51:01.645Z,20.36
2024-04-07T18:53:28.276Z,20.36
2024-04-07T18:55:56.874Z,20.37
2024-04-07T18:58:23.563Z,20.38
2024-04-07T19:00:53.623Z,20.30
2024-04-07T19:03:20.282Z,20.35
2024-04-07T19:05:51.207Z,20.30
2024-04-07T19:08:19.954Z,20.31
2024-04-07T19:10:48.958Z,20.32
2024-04-07T19:13:15.905Z,20.31
2024-04-07T19:15:44.704Z,20.28
2024-04-07T19:18:12.059Z,20.20
2024-04-07T19:20:40.648Z,20.12
2024-04-07T19:23:07.302Z,19.99
2024-04-07T19:25:37.839Z,19.86
2024-04-07T19:28:04.867Z,19.68
2024-04-07T19:30:33.488Z,19.51
2024-04-07T19:33:01.507Z,19.31
2024-04-07T19:35:30.137Z,19.12
2024-04-07T19:38:00.024Z,18.96
2024-04-07T19:40:30.095Z,18.81
2024-04-07T19:42:58.616Z,18.67
2024-04-07T19:45:27.216Z,18.58
2024-04-07T19:47:53.784Z,18.50
2024-04-07T19:50:22.695Z,18.43
2024-04-07T19:52:52.017Z,18.34
2024-04-07T19:55:20.532Z,18.23
2024-04-07T19:57:47.145Z,18.15
2024-04-07T20:00:18.851Z,18.09
2024-04-07T20:02:46.926Z,18.04
2024-04-07T20:05:16.339Z,17.95
2024-04-07T20:07:42.950Z,17.93
2024-04-07T20:10:11.913Z,17.87
2024-04-07T20:12:38.943Z,17.79
2024-04-07T20:15:09.103Z,17.70
2024-04-07T20:17:37.849Z,17.65
2024-04-07T20:20:06.966Z,17.58
2024-04-07T20:22:37.125Z,17.48
2024-04-07T20:25:10.599Z,17.38
2024-04-07T20:27:37.114Z,17.25
2024-04-07T20:30:06.304Z,17.14
2024-04-07T20:32:32.742Z,17.01
2024-04-07T20:35:03.408Z,16.88
2024-04-07T20:37:30.100Z,16.75
2024-04-07T20:40:00.144Z,16.68
2024-04-07T20:42:26.640Z,16.64
2024-04-07T20:44:55.434Z,16.60
2024-04-07T20:47:22.248Z,16.56
2024-04-07T20:49:51.024Z,16.55
2024-04-07T20:52:19.883Z,16.59
2024-04-07T20:54:49.186Z,16.57
2024-04-07T20:57:15.705Z,16.58
2024-04-07T20:59:44.171Z,16.61
2024-04-07T21:02:10.915Z,16.62
2024-04-07T21:04:40.889Z,16.65
2024-04-07T21:07:07.426Z,16.63
2024-04-07T21:09:38.074Z,16.58
2024-04-07T21:12:05.932Z,16.53
2024-04-07T21:14:35.040Z,16.54
2024-04-07T21:17:01.540Z,16.58
2024-04-07T21:19:30.037Z,16.63
2024-04-07T21:21:56.535Z,16.69
2024-04-07T21:24:25.170Z,16.73
2024-04-07T21:26:53.658Z,16.77
2024-04-07T21:29:22.354Z,16.80
2024-04-07T21:31:51.279Z,16.80
2024-04-07T21:34:19.728Z,16.81
2024-04-07T21:36:46.188Z,16.78
2024-04-07T21:39:14.846Z,16.76
2024-04-07T21:41:41.261Z,16.74
2024-04-07T21:44:11.570Z,16.65
2024-04-07T21:46:39.720Z,16.62
2024-04-07T21:49:11.498Z,16.56
2024-04-07T21:51:37.925Z,16.51
2024-04-07T21:54:06.207Z,16.43
2024-04-07T21:56:32.633Z,16.42
2024-04-07T21:59:01.205Z,16.43
2024-04-07T22:01:29.907Z,16.42
2024-04-07T22:03:58.323Z,16.42
2024-04-07T22:06:24.846Z,16.41
2024-04-07T22:08:53.334Z,16.41
2024-04-07T22:11:19.742Z,16.40
2024-04-07T22:13:47.949Z,16.38
2024-04-07T22:16:14.393Z,16.40
2024-04-07T22:18:44.647Z,16.33
2024-04-07T22:21:11.064Z,16.33
2024-04-07T22:23:39.320Z,16.21
2024-04-07T22:26:05.709Z,16.16
2024-04-07T22:28:33.981Z,16.00
2024-04-07T22:31:00.736Z,16.00
2024-04-07T22:33:29.644Z,15.99
2024-04-07T22:35:58.122Z,15.96
2024-04-07T22:38:26.550Z,15.93
2024-04-07T22:40:52.987Z,15.94
2024-04-07T22:43:21.192Z,15.88
2024-04-07T22:45:48.615Z,15.91
2024-04-07T22:48:17.026Z,15.90
2024-04-07T22:50:43.465Z,15.89
2024-04-07T22:53:13.729Z,15.86
2024-04-07T22:55:40.324Z,15.87
2024-04-07T22:58:08.811Z,15.83
2024-04-07T23:00:38.918Z,15.82
2024-04-07T23:03:07.579Z,15.79
2024-04-07T23:05:34.307Z,15.79
2024-04-07T23:08:02.852Z,15.78
2024-04-07T23:10:31.866Z,15.80
2024-04-07T23:13:01.873Z,15.81
2024-04-07T23:15:28.330Z,15.85
2024-04-07T23:17:56.548Z,15.82
2024-04-07T23:20:23.161Z,15.89
2024-04-07T23:22:51.613Z,15.94
2024-04-07T23:25:18.032Z,15.93
2024-04-07T23:27:48.888Z,15.83
2024-04-07T23:30:15.855Z,15.88
2024-04-07T23:32:44.697Z,15.89
2024-04-07T23:35:11.178Z,15.85
2024-04-07T23:37:39.381Z,15.73
2024-04-07T23:40:09.339Z,15.73
2024-04-07T23:42:39.270Z,15.68
2024-04-07T23:45:07.923Z,15.60
2024-04-07T23:47:37.456Z,15.50
2024-04-07T23:50:04.533Z,15.40
2024-04-07T23:52:32.996Z,15.32
2024-04-07T23:54:59.360Z,15.22
2024-04-07T23:57:27.789Z,15.17
2024-04-07T23:59:54.163Z,15.13
